createdAt,value
2019-02-07T00:00:33.590Z,8.67
2019-02-07T00:03:02.089Z,9.93
2019-02-07T00:05:30.497Z,8.83
2019-02-07T00:07:58.982Z,9.07
2019-02-07T00:10:27.558Z,8.97
2019-02-07T00:12:56.344Z,8.97
2019-02-07T00:15:24.942Z,9.17
2019-02-07T00:17:53.552Z,9.70
2019-02-07T00:20:22.414Z,9.07
2019-02-07T00:22:50.995Z,9.00
2019-02-07T00:25:19.451Z,8.60
2019-02-07T00:27:47.939Z,8.17
2019-02-07T00:30:20.740Z,8.87
2019-02-07T00:32:49.226Z,9.33
2019-02-07T00:35:18.073Z,8.57
2019-02-07T00:37:46.692Z,8.53
2019-02-07T00:40:19.988Z,8.23
2019-02-07T00:42:48.944Z,7.80
2019-02-07T00:45:18.960Z,8.20
2019-02-07T00:47:47.975Z,8.43
2019-02-07T00:50:17.888Z,8.30
2019-02-07T00:52:46.622Z,7.67
2019-02-07T00:55:17.688Z,8.43
2019-02-07T00:57:46.361Z,7.33
2019-02-07T01:00:23.449Z,7.93
2019-02-07T01:02:52.137Z,7.33
2019-02-07T01:05:22.252Z,7.73
2019-02-07T01:07:51.285Z,8.17
2019-02-07T01:10:25.824Z,7.23
2019-02-07T01:12:54.628Z,7.93
2019-02-07T01:15:24.050Z,8.07
2019-02-07T01:17:52.684Z,7.60
2019-02-07T01:20:21.377Z,7.27
2019-02-07T01:22:49.833Z,8.33
2019-02-07T01:25:25.577Z,8.77
2019-02-07T01:27:55.547Z,8.10
2019-02-07T01:30:28.194Z,8.63
2019-02-07T01:32:57.107Z,8.60
2019-02-07T01:35:25.673Z,8.67
2019-02-07T01:37:54.845Z,9.70
2019-02-07T01:40:24.064Z,9.17
2019-02-07T01:42:52.674Z,9.07
2019-02-07T01:45:25.376Z,9.83
2019-02-07T01:47:53.837Z,9.27
2019-02-07T01:50:24.214Z,8.93
2019-02-07T01:52:53.464Z,10.17
2019-02-07T01:55:22.564Z,9.67
2019-02-07T01:57:51.814Z,8.50
2019-02-07T02:00:20.944Z,8.80
2019-02-07T02:02:50.354Z,8.93
2019-02-07T02:05:20.756Z,8.93
2019-02-07T02:07:50.798Z,9.47
2019-02-07T02:10:24.989Z,8.97
2019-02-07T02:12:53.569Z,9.57
2019-02-07T02:15:24.999Z,8.97
2019-02-07T02:17:54.133Z,9.53
2019-02-07T02:20:25.268Z,9.73
2019-02-07T02:22:55.764Z,9.27
2019-02-07T02:25:24.772Z,9.63
2019-02-07T02:27:53.386Z,9.40
2019-02-07T02:30:28.018Z,8.97
2019-02-07T02:32:56.513Z,9.53
2019-02-07T02:35:25.072Z,8.80
2019-02-07T02:37:53.551Z,9.03
2019-02-07T02:40:22.157Z,8.53
2019-02-07T02:42:50.681Z,8.33
2019-02-07T02:45:36.695Z,8.33
2019-02-07T02:47:54.633Z,8.60
2019-02-07T02:50:23.630Z,7.87
2019-02-07T02:52:52.153Z,7.97
2019-02-07T02:55:22.381Z,7.17
2019-02-07T02:57:51.369Z,7.73
2019-02-07T03:00:21.534Z,7.17
2019-02-07T03:03:07.766Z,7.90
2019-02-07T03:05:37.960Z,7.93
2019-02-07T03:08:08.026Z,7.00
2019-02-07T03:10:38.220Z,7.30
2019-02-07T03:13:08.344Z,5.93
2019-02-07T03:15:49.748Z,6.70
2019-02-07T03:18:16.273Z,6.77
2019-02-07T03:20:58.666Z,6.87
2019-02-07T03:23:44.892Z,7.10
2019-02-07T03:26:15.023Z,7.33
2019-02-07T03:28:50.829Z,6.90
2019-02-07T03:31:23.637Z,6.77
2019-02-07T03:34:02.828Z,7.10
2019-02-07T03:36:38.707Z,6.67
2019-02-07T03:39:15.673Z,5.67
2019-02-07T03:41:48.563Z,6.63
2019-02-07T03:44:22.408Z,6.57
2019-02-07T03:47:01.701Z,6.57
2019-02-07T03:49:47.798Z,6.43
2019-02-07T03:52:23.893Z,6.00
2019-02-07T03:55:09.074Z,6.17
2019-02-07T03:57:41.919Z,6.10
2019-02-07T04:00:16.869Z,6.60
2019-02-07T04:02:46.921Z,6.23
2019-02-07T04:05:16.986Z,6.07
2019-02-07T04:07:47.229Z,6.00
2019-02-07T04:10:26.240Z,6.60
2019-02-07T04:12:56.616Z,6.70
2019-02-07T04:15:42.885Z,6.30
2019-02-07T04:18:28.777Z,6.70
2019-02-07T04:20:59.315Z,6.90
2019-02-07T04:23:44.334Z,6.43
2019-02-07T04:26:26.614Z,6.67
2019-02-07T04:28:56.697Z,6.83
2019-02-07T04:31:29.689Z,6.37
2019-02-07T04:34:05.702Z,7.13
2019-02-07T04:36:44.911Z,5.87
2019-02-07T04:39:23.830Z,6.20
2019-02-07T04:42:05.813Z,6.53
2019-02-07T04:44:41.654Z,6.03
2019-02-07T04:47:17.746Z,6.50
2019-02-07T04:49:53.572Z,6.20
2019-02-07T04:52:32.409Z,6.70
2019-02-07T04:55:11.717Z,6.10
2019-02-07T04:57:42.264Z,6.40
2019-02-07T05:00:20.454Z,6.97
2019-02-07T05:02:53.320Z,5.57
2019-02-07T05:05:29.109Z,6.83
2019-02-07T05:07:59.583Z,6.47
2019-02-07T05:10:32.524Z,6.53
2019-02-07T05:13:02.672Z,5.73
2019-02-07T05:15:48.924Z,6.60
2019-02-07T05:18:25.490Z,6.73
2019-02-07T05:21:04.575Z,6.43
2019-02-07T05:23:50.952Z,6.50
2019-02-07T05:26:30.064Z,6.93
2019-02-07T05:29:15.203Z,7.67
2019-02-07T05:31:45.282Z,7.23
2019-02-07T05:34:15.383Z,7.40
2019-02-07T05:36:55.116Z,7.00
2019-02-07T05:39:43.281Z,8.33
2019-02-07T05:42:22.813Z,7.20
2019-02-07T05:44:59.212Z,8.27
2019-02-07T05:47:32.104Z,7.63
2019-02-07T05:50:04.680Z,7.30
2019-02-07T05:52:34.798Z,6.17
2019-02-07T05:55:21.688Z,6.33
2019-02-07T05:58:00.813Z,6.17
2019-02-07T06:00:33.828Z,6.13
2019-02-07T06:03:12.949Z,6.73
2019-02-07T06:06:01.564Z,6.57
2019-02-07T06:08:31.663Z,5.93
2019-02-07T06:11:13.843Z,7.33
2019-02-07T06:13:55.847Z,6.90
2019-02-07T06:16:28.702Z,6.77
2019-02-07T06:19:07.552Z,6.70
2019-02-07T06:21:38.011Z,6.40
2019-02-07T06:24:10.819Z,7.17
2019-02-07T06:26:59.248Z,7.43
2019-02-07T06:29:29.300Z,7.10
2019-02-07T06:32:11.288Z,7.83
2019-02-07T06:34:47.136Z,7.50
2019-02-07T06:37:17.346Z,7.83
2019-02-07T06:39:56.208Z,7.23
2019-02-07T06:42:26.300Z,7.00
2019-02-07T06:45:08.332Z,7.00
2019-02-07T06:47:54.461Z,7.27
2019-02-07T06:50:36.197Z,7.00
2019-02-07T06:53:11.286Z,7.43
2019-02-07T06:55:41.268Z,7.20
2019-02-07T06:58:11.528Z,7.00
2019-02-07T07:00:41.594Z,7.13
2019-02-07T07:03:20.880Z,6.47
2019-02-07T07:05:51.108Z,7.60
2019-02-07T07:08:26.974Z,7.87
2019-02-07T07:10:57.069Z,7.20
2019-02-07T07:13:27.130Z,6.73
2019-02-07T07:15:57.203Z,6.60
2019-02-07T07:18:27.286Z,9.70
2019-02-07T07:21:06.329Z,7.07
2019-02-07T07:23:42.516Z,7.90
2019-02-07T07:26:30.765Z,6.90
2019-02-07T07:29:03.778Z,6.37
2019-02-07T07:31:39.330Z,6.37
2019-02-07T07:34:25.565Z,7.27
2019-02-07T07:37:07.456Z,6.47
2019-02-07T07:39:40.511Z,6.17
2019-02-07T07:42:13.573Z,5.63
2019-02-07T07:44:58.889Z,6.57
2019-02-07T07:47:36.178Z,6.20
2019-02-07T07:50:15.578Z,5.87
2019-02-07T07:52:45.750Z,6.10
2019-02-07T07:55:18.659Z,6.03
2019-02-07T07:58:05.142Z,5.80
2019-02-07T08:00:35.348Z,6.63
2019-02-07T08:03:15.096Z,6.20
2019-02-07T08:05:48.397Z,5.30
2019-02-07T08:08:34.562Z,5.50
2019-02-07T08:11:22.677Z,6.83
2019-02-07T08:13:52.835Z,5.03
2019-02-07T08:16:29.017Z,6.07
2019-02-07T08:18:59.110Z,6.80
2019-02-07T08:21:29.254Z,6.00
2019-02-07T08:23:59.313Z,5.90
2019-02-07T08:26:29.418Z,5.53
2019-02-07T08:29:15.863Z,5.43
2019-02-07T08:31:45.958Z,6.40
2019-02-07T08:34:24.496Z,5.83
2019-02-07T08:36:57.957Z,5.43
2019-02-07T08:39:30.827Z,6.27
2019-02-07T08:42:16.966Z,6.17
2019-02-07T08:44:47.024Z,6.50
2019-02-07T08:47:19.849Z,6.63
2019-02-07T08:49:49.925Z,6.07
2019-02-07T08:52:36.223Z,6.33
2019-02-07T08:55:23.189Z,6.50
2019-02-07T08:57:59.026Z,7.47
2019-02-07T09:00:29.184Z,6.87
2019-02-07T09:02:59.316Z,6.33
2019-02-07T09:05:37.990Z,6.97
2019-02-07T09:08:23.415Z,7.03
2019-02-07T09:11:09.918Z,7.53
2019-02-07T09:13:57.037Z,7.40
2019-02-07T09:16:43.273Z,7.10
2019-02-07T09:19:35.134Z,6.90
2019-02-07T09:22:23.897Z,7.17
2019-02-07T09:25:02.801Z,7.07
2019-02-07T09:27:44.773Z,8.23
2019-02-07T09:30:34.286Z,7.80
2019-02-07T09:33:16.912Z,7.23
2019-02-07T09:36:05.230Z,7.70
2019-02-07T09:38:51.915Z,7.87
2019-02-07T09:41:25.161Z,8.60
2019-02-07T09:44:01.182Z,8.50
2019-02-07T09:46:31.365Z,8.23
2019-02-07T09:49:19.635Z,8.80
2019-02-07T09:51:55.221Z,8.37
2019-02-07T09:54:25.483Z,7.93
2019-02-07T09:57:01.629Z,9.13
2019-02-07T09:59:38.124Z,8.67
2019-02-07T10:02:20.716Z,9.03
2019-02-07T10:04:50.777Z,10.33
2019-02-07T10:07:20.865Z,10.23
2019-02-07T10:10:07.654Z,8.87
2019-02-07T10:12:37.747Z,10.20
2019-02-07T10:15:09.052Z,10.60
2019-02-07T10:17:40.957Z,9.73
2019-02-07T10:20:11.967Z,10.90
2019-02-07T10:22:58.257Z,10.10
2019-02-07T10:25:44.520Z,10.83
2019-02-07T10:28:23.694Z,11.77
2019-02-07T10:31:02.620Z,11.03
2019-02-07T10:33:38.404Z,11.23
2019-02-07T10:36:20.445Z,11.67
2019-02-07T10:39:06.791Z,12.30
2019-02-07T10:41:39.539Z,12.07
2019-02-07T10:44:09.832Z,13.67
2019-02-07T10:46:55.824Z,13.77
2019-02-07T10:49:44.076Z,11.90
2019-02-07T10:52:23.244Z,12.63
2019-02-07T10:55:05.069Z,14.20
2019-02-07T10:57:38.286Z,13.37
2019-02-07T11:00:22.220Z,13.33
2019-02-07T11:03:00.804Z,13.50
2019-02-07T11:05:31.038Z,13.93
2019-02-07T11:08:03.882Z,14.90
2019-02-07T11:10:33.964Z,13.93
2019-02-07T11:13:04.107Z,14.27
2019-02-07T11:15:36.956Z,15.33
2019-02-07T11:18:13.844Z,14.57
2019-02-07T11:21:00.579Z,13.43
2019-02-07T11:23:30.661Z,14.67
2019-02-07T11:26:03.639Z,13.17
2019-02-07T11:28:40.004Z,14.70
2019-02-07T11:31:25.131Z,14.30
2019-02-07T11:34:07.221Z,14.47
2019-02-07T11:36:54.447Z,14.90
2019-02-07T11:39:24.847Z,15.03
2019-02-07T11:42:03.771Z,14.27
2019-02-07T11:44:39.557Z,14.37
2019-02-07T11:47:26.246Z,15.27
2019-02-07T11:49:56.345Z,15.80
2019-02-07T11:52:26.470Z,15.67
2019-02-07T11:54:59.331Z,16.20
2019-02-07T11:57:32.715Z,16.67
2019-02-07T12:00:02.789Z,16.10
2019-02-07T12:02:41.651Z,15.80
2019-02-07T12:05:12.672Z,15.97
2019-02-07T12:07:48.594Z,16.83
2019-02-07T12:10:37.149Z,16.90
2019-02-07T12:13:07.391Z,17.63
2019-02-07T12:15:40.437Z,16.03
2019-02-07T12:18:22.302Z,18.57
2019-02-07T12:20:58.039Z,21.93
2019-02-07T12:23:29.715Z,23.77
2019-02-07T12:25:59.785Z,22.97
2019-02-07T12:28:45.760Z,22.73
2019-02-07T12:31:15.956Z,21.90
2019-02-07T12:33:46.036Z,17.03
2019-02-07T12:36:18.859Z,15.87
2019-02-07T12:38:48.951Z,15.13
2019-02-07T12:41:19.005Z,15.00
2019-02-07T12:44:05.477Z,17.73
2019-02-07T12:46:47.894Z,19.50
2019-02-07T12:49:28.995Z,20.20
2019-02-07T12:51:57.408Z,24.17
2019-02-07T12:54:27.562Z,23.20
2019-02-07T12:57:15.928Z,23.97
2019-02-07T13:00:04.053Z,24.23
2019-02-07T13:02:48.879Z,22.00
2019-02-07T13:05:22.523Z,23.70
2019-02-07T13:08:07.880Z,21.83
2019-02-07T13:10:38.123Z,21.17
2019-02-07T13:13:08.286Z,22.43
2019-02-07T13:15:56.926Z,20.77
2019-02-07T13:18:36.398Z,19.83
2019-02-07T13:21:07.118Z,20.33
2019-02-07T13:23:52.579Z,21.10
2019-02-07T13:26:28.242Z,19.03
2019-02-07T13:28:58.517Z,18.80
2019-02-07T13:31:44.477Z,17.97
2019-02-07T13:34:14.739Z,18.23
2019-02-07T13:36:51.075Z,18.13
2019-02-07T13:39:27.280Z,16.03
2019-02-07T13:41:57.748Z,16.03
2019-02-07T13:44:39.847Z,16.40
2019-02-07T13:47:13.163Z,17.00
2019-02-07T13:49:52.428Z,16.37
2019-02-07T13:52:40.982Z,17.40
2019-02-07T13:55:28.899Z,18.43
2019-02-07T13:57:59.352Z,20.53
2019-02-07T14:00:29.520Z,18.10
2019-02-07T14:03:16.126Z,19.43
2019-02-07T14:05:55.563Z,18.87
2019-02-07T14:08:38.325Z,19.00
2019-02-07T14:11:03.378Z,18.00
2019-02-07T14:13:49.599Z,17.53
2019-02-07T14:16:36.386Z,18.77
2019-02-07T14:19:22.465Z,19.87
2019-02-07T14:21:52.681Z,21.03
2019-02-07T14:24:47.166Z,16.43
2019-02-07T14:27:20.084Z,15.23
2019-02-07T14:30:08.331Z,16.00
2019-02-07T14:32:44.068Z,15.90
2019-02-07T14:35:14.721Z,14.20
2019-02-07T14:37:50.537Z,15.73
2019-02-07T14:40:29.694Z,15.00
2019-02-07T14:43:03.003Z,14.87
2019-02-07T14:45:33.231Z,15.57
2019-02-07T14:48:02.085Z,15.57
2019-02-07T14:50:30.663Z,15.00
2019-02-07T14:53:01.892Z,15.93
2019-02-07T14:55:29.425Z,15.47
2019-02-07T14:57:58.029Z,15.40
2019-02-07T15:00:27.673Z,15.10
2019-02-07T15:02:56.283Z,15.67
2019-02-07T15:05:24.749Z,15.40
2019-02-07T15:07:53.363Z,15.07
2019-02-07T15:10:22.244Z,14.77
2019-02-07T15:12:50.828Z,14.50
2019-02-07T15:15:21.555Z,14.10
2019-02-07T15:17:50.147Z,15.53
2019-02-07T15:20:25.742Z,14.97
2019-02-07T15:22:49.169Z,14.77
2019-02-07T15:25:18.127Z,15.23
2019-02-07T15:27:46.640Z,16.50
2019-02-07T15:30:18.408Z,16.80
2019-02-07T15:32:47.008Z,15.20
2019-02-07T15:35:30.823Z,15.57
2019-02-07T15:38:00.040Z,15.77
2019-02-07T15:40:28.506Z,15.77
2019-02-07T15:42:57.905Z,15.97
2019-02-07T15:45:26.995Z,16.10
2019-02-07T15:47:55.569Z,15.80
2019-02-07T15:50:37.764Z,15.57
2019-02-07T15:53:00.154Z,16.90
2019-02-07T15:55:28.718Z,16.30
2019-02-07T15:57:57.728Z,16.43
2019-02-07T16:00:38.366Z,16.87
2019-02-07T16:03:08.623Z,16.80
2019-02-07T16:05:37.332Z,15.63
2019-02-07T16:08:06.256Z,16.67
2019-02-07T16:10:34.783Z,16.70
2019-02-07T16:13:03.311Z,16.63
2019-02-07T16:15:31.886Z,16.10
2019-02-07T16:18:00.347Z,16.57
2019-02-07T16:20:29.421Z,16.17
2019-02-07T16:22:59.055Z,16.97
2019-02-07T16:25:27.766Z,16.20
2019-02-07T16:27:56.305Z,16.43
2019-02-07T16:30:24.871Z,15.90
2019-02-07T16:32:53.353Z,15.50
2019-02-07T16:35:23.088Z,15.43
2019-02-07T16:37:52.129Z,16.30
2019-02-07T16:40:24.845Z,15.87
2019-02-07T16:42:53.554Z,15.47
2019-02-07T16:45:24.032Z,15.97
2019-02-07T16:47:52.595Z,14.50
2019-02-07T16:50:26.952Z,16.00
2019-02-07T16:52:55.620Z,16.40
2019-02-07T16:55:24.692Z,14.73
2019-02-07T16:57:53.318Z,15.77
2019-02-07T17:00:30.293Z,17.13
2019-02-07T17:02:59.296Z,16.73
2019-02-07T17:05:28.034Z,16.27
2019-02-07T17:07:57.004Z,16.33
2019-02-07T17:10:31.558Z,17.03
2019-02-07T17:13:00.437Z,15.17
2019-02-07T17:15:33.747Z,15.63
2019-02-07T17:18:02.560Z,14.80
2019-02-07T17:20:32.393Z,15.20
2019-02-07T17:23:01.498Z,16.30
2019-02-07T17:25:32.083Z,16.37
2019-02-07T17:28:04.822Z,15.57
2019-02-07T17:30:33.962Z,15.47
2019-02-07T17:33:02.578Z,13.77
2019-02-07T17:35:31.219Z,14.33
2019-02-07T17:37:59.852Z,15.07
2019-02-07T17:40:29.437Z,13.17
2019-02-07T17:42:58.024Z,15.10
2019-02-07T17:45:29.746Z,14.20
2019-02-07T17:47:58.639Z,14.57
2019-02-07T17:50:38.820Z,14.33
2019-02-07T17:53:14.046Z,13.77
2019-02-07T17:55:42.967Z,13.70
2019-02-07T17:58:12.463Z,13.30
2019-02-07T18:00:45.803Z,13.37
2019-02-07T18:03:14.679Z,13.77
2019-02-07T18:05:45.131Z,12.80
2019-02-07T18:08:14.582Z,12.40
2019-02-07T18:10:44.178Z,13.67
2019-02-07T18:13:13.489Z,12.57
2019-02-07T18:15:42.037Z,12.73
2019-02-07T18:18:10.732Z,12.80
2019-02-07T18:20:39.388Z,13.13
2019-02-07T18:23:08.237Z,14.23
2019-02-07T18:25:36.803Z,12.83
2019-02-07T18:28:06.003Z,13.60
2019-02-07T18:30:35.073Z,14.17
2019-02-07T18:33:03.840Z,13.77
2019-02-07T18:35:32.346Z,12.60
2019-02-07T18:38:00.970Z,13.90
2019-02-07T18:40:32.134Z,14.47
2019-02-07T18:43:01.425Z,13.40
2019-02-07T18:45:30.090Z,13.97
2019-02-07T18:47:59.349Z,15.10
2019-02-07T18:50:36.830Z,14.07
2019-02-07T18:53:07.035Z,15.30
2019-02-07T18:55:35.647Z,15.70
2019-02-07T18:58:05.243Z,16.27
2019-02-07T19:00:36.428Z,14.17
2019-02-07T19:03:07.781Z,15.30
2019-02-07T19:05:36.650Z,16.33
2019-02-07T19:08:06.802Z,14.93
2019-02-07T19:10:35.543Z,15.47
2019-02-07T19:13:04.825Z,15.33
2019-02-07T19:15:39.048Z,15.63
2019-02-07T19:18:08.115Z,15.00
2019-02-07T19:20:36.751Z,15.83
2019-02-07T19:23:06.945Z,14.60
2019-02-07T19:25:35.741Z,14.57
2019-02-07T19:28:06.149Z,15.17
2019-02-07T19:30:35.585Z,14.67
2019-02-07T19:33:04.989Z,13.93
2019-02-07T19:35:33.573Z,13.47
2019-02-07T19:38:02.207Z,13.43
2019-02-07T19:40:30.713Z,14.63
2019-02-07T19:42:59.715Z,13.90
2019-02-07T19:45:29.591Z,14.47
2019-02-07T19:47:58.069Z,13.10
2019-02-07T19:50:27.981Z,14.40
2019-02-07T19:52:56.535Z,14.70
2019-02-07T19:55:27.446Z,13.70
2019-02-07T19:57:56.249Z,13.97
2019-02-07T20:00:27.694Z,14.07
2019-02-07T20:02:56.900Z,13.57
2019-02-07T20:05:25.633Z,14.10
2019-02-07T20:07:54.153Z,14.27
2019-02-07T20:10:25.154Z,14.30
2019-02-07T20:12:54.432Z,14.93
2019-02-07T20:15:37.903Z,14.07
2019-02-07T20:18:08.457Z,15.10
2019-02-07T20:20:37.131Z,14.93
2019-02-07T20:23:06.123Z,14.03
2019-02-07T20:25:34.549Z,12.63
2019-02-07T20:28:02.960Z,13.63
2019-02-07T20:30:42.848Z,12.40
2019-02-07T20:33:11.495Z,13.23
2019-02-07T20:35:40.049Z,13.77
2019-02-07T20:38:09.862Z,13.70
2019-02-07T20:40:38.837Z,14.37
2019-02-07T20:43:07.887Z,13.37
2019-02-07T20:45:36.876Z,13.43
2019-02-07T20:48:07.964Z,13.57
2019-02-07T20:50:36.447Z,14.33
2019-02-07T20:53:06.423Z,13.93
2019-02-07T20:55:35.014Z,13.77
2019-02-07T20:58:05.551Z,13.87
2019-02-07T21:00:39.196Z,14.10
2019-02-07T21:03:07.929Z,13.30
2019-02-07T21:05:37.361Z,13.00
2019-02-07T21:08:07.049Z,13.50
2019-02-07T21:10:40.187Z,13.80
2019-02-07T21:13:09.056Z,14.00
2019-02-07T21:15:37.488Z,13.13
2019-02-07T21:18:06.566Z,13.33
2019-02-07T21:20:36.722Z,13.13
2019-02-07T21:23:05.890Z,13.13
2019-02-07T21:25:46.916Z,12.70
2019-02-07T21:28:15.535Z,12.13
2019-02-07T21:30:44.040Z,13.13
2019-02-07T21:33:13.568Z,13.70
2019-02-07T21:35:42.077Z,14.23
2019-02-07T21:38:10.927Z,14.47
2019-02-07T21:40:40.903Z,14.70
2019-02-07T21:43:10.332Z,15.37
2019-02-07T21:45:38.946Z,14.43
2019-02-07T21:48:09.158Z,14.23
2019-02-07T21:50:38.757Z,14.07
2019-02-07T21:53:10.305Z,15.27
2019-02-07T21:55:40.418Z,15.27
2019-02-07T21:58:09.936Z,13.80
2019-02-07T22:00:45.752Z,14.87
2019-02-07T22:03:15.807Z,15.67
2019-02-07T22:05:44.686Z,16.20
2019-02-07T22:08:15.335Z,17.27
2019-02-07T22:10:43.920Z,19.13
2019-02-07T22:13:13.527Z,19.13
2019-02-07T22:15:44.946Z,18.57
2019-02-07T22:18:13.437Z,16.23
2019-02-07T22:20:41.880Z,16.03
2019-02-07T22:23:10.384Z,17.77
2019-02-07T22:25:38.884Z,16.03
2019-02-07T22:28:08.343Z,17.27
2019-02-07T22:30:37.833Z,16.03
2019-02-07T22:33:08.106Z,16.83
2019-02-07T22:35:36.643Z,14.70
2019-02-07T22:38:07.319Z,14.77
2019-02-07T22:40:35.882Z,15.57
2019-02-07T22:43:05.313Z,13.50
2019-02-07T22:45:33.823Z,13.90
2019-02-07T22:48:02.408Z,13.63
2019-02-07T22:50:31.882Z,13.87
2019-02-07T22:53:01.613Z,13.30
2019-02-07T22:55:30.499Z,13.67
2019-02-07T22:57:58.997Z,14.23
2019-02-07T23:00:38.449Z,12.77
2019-02-07T23:03:12.320Z,12.30
2019-02-07T23:05:40.836Z,11.87
2019-02-07T23:08:09.987Z,10.17
2019-02-07T23:10:39.271Z,10.00
2019-02-07T23:13:08.970Z,10.30
2019-02-07T23:15:38.049Z,10.43
2019-02-07T23:18:08.416Z,9.50
2019-02-07T23:20:37.049Z,9.60
2019-02-07T23:23:10.158Z,8.60
2019-02-07T23:25:39.068Z,9.47
2019-02-07T23:28:09.720Z,8.00
2019-02-07T23:30:38.615Z,8.40
2019-02-07T23:33:07.311Z,8.70
2019-02-07T23:35:35.828Z,8.73
2019-02-07T23:38:05.935Z,9.27
2019-02-07T23:40:34.580Z,8.67
2019-02-07T23:43:03.385Z,9.30
2019-02-07T23:45:31.906Z,8.80
2019-02-07T23:48:00.474Z,9.27
2019-02-07T23:50:29.048Z,9.33
2019-02-07T23:52:57.526Z,8.70
2019-02-07T23:55:28.478Z,8.90
2019-02-07T23:58:00.435Z,9.17
